Eagle Rock, Virginia
Current Conditions -  °F | °C
As of 4:55 AM on Friday 24 Oct 2014 (Local Time) from KHSP Reporting Station
Clear Clear  
Wind Chill: 30°   Ceiling: Unl
Heat Index: 39°   Visibility: 10mi
Dew Point: 38°   Wind: 18mph
Humidity: 95%   Direction: 290°WNW
Pressure: 30.01"   Gusts: 24mph
Location:  37.64°N, 79.8°W
Report Text: KHSP 240855Z AUTO 29016G21KT 10SM CLR 04/03 A3001 RMK AO2 T00410033
Loading
Personal Weather Stations






























Interactive Weather Map
Tropical Storm Tracking
New forecast layout! Learn more

10-Day Weather Forecast

Advertisements
Track Severe Weather on mobile